Terminal Aerodrome Forecast
Issued by NWS North Platte, NE

Home | Current Version | Previous Version | Text Only | Print | Product List | Glossary On
Versions: 1 2 3 4 5 6 7 8 9 10 11 12 13 14 15 16
000
FTUS43 KLBF 302300
TAFLBF
TAF
KLBF 302324Z 0100/0124 22008KT P6SM SCT090 BKN150
     FM010100 VRB03KT P6SM SCT090 SCT150
     FM011500 34006KT P6SM OVC120=

USA.gov is the U.S. government's official web portal to all federal, state and local government web resources and services.